sensor_id;sensor_type;location;lat;lon;timestamp;P1;durP1;ratioP1;P2;durP2;ratioP2
14015;SDS011;7083;48.854;9.158;2023-04-05T00:01:58;397.10;;;381.10;;
14015;SDS011;7083;48.854;9.158;2023-04-05T00:04:26;413.13;;;396.40;;
14015;SDS011;7083;48.854;9.158;2023-04-05T00:06:52;352.60;;;338.43;;
14015;SDS011;7083;48.854;9.158;2023-04-05T00:09:22;346.07;;;332.47;;
14015;SDS011;7083;48.854;9.158;2023-04-05T00:11:50;343.73;;;329.83;;
14015;SDS011;7083;48.854;9.158;2023-04-05T00:14:16;339.50;;;326.20;;
14015;SDS011;7083;48.854;9.158;2023-04-05T00:16:43;343.13;;;329.63;;
14015;SDS011;7083;48.854;9.158;2023-04-05T00:19:10;356.63;;;342.47;;
14015;SDS011;7083;48.854;9.158;2023-04-05T00:21:37;337.80;;;324.53;;
14015;SDS011;7083;48.854;9.158;2023-04-05T00:24:05;337.60;;;324.37;;
14015;SDS011;7083;48.854;9.158;2023-04-05T00:26:40;353.17;;;338.87;;
14015;SDS011;7083;48.854;9.158;2023-04-05T00:29:08;343.33;;;329.87;;
14015;SDS011;7083;48.854;9.158;2023-04-05T00:31:35;348.23;;;334.60;;
14015;SDS011;7083;48.854;9.158;2023-04-05T00:34:02;356.37;;;342.27;;
14015;SDS011;7083;48.854;9.158;2023-04-05T00:36:29;357.97;;;343.87;;
14015;SDS011;7083;48.854;9.158;2023-04-05T00:38:56;354.40;;;340.40;;
14015;SDS011;7083;48.854;9.158;2023-04-05T00:41:23;348.87;;;335.03;;
14015;SDS011;7083;48.854;9.158;2023-04-05T00:43:51;351.20;;;337.33;;
14015;SDS011;7083;48.854;9.158;2023-04-05T00:46:18;355.43;;;341.33;;
14015;SDS011;7083;48.854;9.158;2023-04-05T00:48:45;372.20;;;357.13;;
14015;SDS011;7083;48.854;9.158;2023-04-05T00:51:12;367.70;;;353.10;;
14015;SDS011;7083;48.854;9.158;2023-04-05T00:53:39;1459.90;;;788.10;;
14015;SDS011;7083;48.854;9.158;2023-04-05T00:56:07;376.77;;;361.67;;
14015;SDS011;7083;48.854;9.158;2023-04-05T00:58:34;358.93;;;344.67;;
14015;SDS011;7083;48.854;9.158;2023-04-05T01:01:03;342.97;;;329.53;;
14015;SDS011;7083;48.854;9.158;2023-04-05T01:03:45;356.53;;;342.27;;
14015;SDS011;7083;48.854;9.158;2023-04-05T01:06:20;336.50;;;323.07;;
14015;SDS011;7083;48.854;9.158;2023-04-05T01:08:55;343.47;;;329.60;;
14015;SDS011;7083;48.854;9.158;2023-04-05T01:11:25;347.70;;;334.00;;
14015;SDS011;7083;48.854;9.158;2023-04-05T01:13:57;342.37;;;328.83;;
14015;SDS011;7083;48.854;9.158;2023-04-05T01:16:25;357.47;;;343.33;;
14015;SDS011;7083;48.854;9.158;2023-04-05T01:18:52;360.70;;;346.40;;
14015;SDS011;7083;48.854;9.158;2023-04-05T01:24:14;1999.90;;;999.90;;
14015;SDS011;7083;48.854;9.158;2023-04-05T01:26:58;1999.90;;;999.90;;
14015;SDS011;7083;48.854;9.158;2023-04-05T01:29:48;1999.90;;;999.90;;
14015;SDS011;7083;48.854;9.158;2023-04-05T01:35:20;1999.90;;;999.90;;
14015;SDS011;7083;48.854;9.158;2023-04-05T01:37:54;1999.90;;;999.90;;
14015;SDS011;7083;48.854;9.158;2023-04-05T01:40:25;364.47;;;349.97;;
14015;SDS011;7083;48.854;9.158;2023-04-05T01:42:53;313.93;;;301.63;;
14015;SDS011;7083;48.854;9.158;2023-04-05T01:45:21;316.80;;;304.20;;
14015;SDS011;7083;48.854;9.158;2023-04-05T01:47:48;316.60;;;304.10;;
14015;SDS011;7083;48.854;9.158;2023-04-05T01:50:14;315.87;;;303.27;;
14015;SDS011;7083;48.854;9.158;2023-04-05T01:52:41;327.33;;;314.37;;
14015;SDS011;7083;48.854;9.158;2023-04-05T01:55:08;314.47;;;301.97;;
14015;SDS011;7083;48.854;9.158;2023-04-05T01:57:35;296.13;;;284.60;;
14015;SDS011;7083;48.854;9.158;2023-04-05T02:00:02;302.33;;;290.47;;
14015;SDS011;7083;48.854;9.158;2023-04-05T02:02:31;296.60;;;284.90;;
14015;SDS011;7083;48.854;9.158;2023-04-05T02:04:57;294.63;;;283.07;;
14015;SDS011;7083;48.854;9.158;2023-04-05T02:07:24;311.57;;;299.37;;
14015;SDS011;7083;48.854;9.158;2023-04-05T02:09:51;293.97;;;282.53;;
14015;SDS011;7083;48.854;9.158;2023-04-05T02:12:17;293.70;;;282.13;;
14015;SDS011;7083;48.854;9.158;2023-04-05T02:14:44;300.13;;;288.23;;
14015;SDS011;7083;48.854;9.158;2023-04-05T02:17:11;295.47;;;283.97;;
14015;SDS011;7083;48.854;9.158;2023-04-05T02:19:39;300.73;;;289.03;;
14015;SDS011;7083;48.854;9.158;2023-04-05T02:22:06;310.20;;;297.97;;
14015;SDS011;7083;48.854;9.158;2023-04-05T02:24:33;305.27;;;293.27;;
14015;SDS011;7083;48.854;9.158;2023-04-05T02:27:00;302.63;;;290.83;;
14015;SDS011;7083;48.854;9.158;2023-04-05T02:29:26;306.00;;;294.07;;
14015;SDS011;7083;48.854;9.158;2023-04-05T02:31:53;304.10;;;292.20;;
14015;SDS011;7083;48.854;9.158;2023-04-05T02:34:20;296.37;;;284.60;;
14015;SDS011;7083;48.854;9.158;2023-04-05T02:36:49;299.77;;;288.10;;
14015;SDS011;7083;48.854;9.158;2023-04-05T02:39:16;289.00;;;277.77;;
14015;SDS011;7083;48.854;9.158;2023-04-05T02:41:43;1431.37;;;760.90;;
14015;SDS011;7083;48.854;9.158;2023-04-05T02:44:11;1428.10;;;757.73;;
14015;SDS011;7083;48.854;9.158;2023-04-05T02:46:37;1429.70;;;759.23;;
14015;SDS011;7083;48.854;9.158;2023-04-05T02:49:04;1446.50;;;775.37;;
14015;SDS011;7083;48.854;9.158;2023-04-05T02:51:31;1429.23;;;758.80;;
14015;SDS011;7083;48.854;9.158;2023-04-05T02:54:00;1426.67;;;756.37;;
14015;SDS011;7083;48.854;9.158;2023-04-05T02:56:27;1999.90;;;999.90;;
14015;SDS011;7083;48.854;9.158;2023-04-05T02:58:54;1999.90;;;999.90;;
14015;SDS011;7083;48.854;9.158;2023-04-05T03:01:21;1999.90;;;999.90;;
14015;SDS011;7083;48.854;9.158;2023-04-05T03:03:47;1999.90;;;999.90;;
14015;SDS011;7083;48.854;9.158;2023-04-05T03:06:14;1999.90;;;999.90;;
14015;SDS011;7083;48.854;9.158;2023-04-05T03:08:41;1999.90;;;999.90;;
14015;SDS011;7083;48.854;9.158;2023-04-05T03:11:11;1999.90;;;999.90;;
14015;SDS011;7083;48.854;9.158;2023-04-05T03:13:38;1999.90;;;999.90;;
14015;SDS011;7083;48.854;9.158;2023-04-05T03:16:05;1999.90;;;999.90;;
14015;SDS011;7083;48.854;9.158;2023-04-05T03:18:32;1999.90;;;999.90;;
14015;SDS011;7083;48.854;9.158;2023-04-05T03:20:59;1999.90;;;999.90;;
14015;SDS011;7083;48.854;9.158;2023-04-05T03:23:26;1999.90;;;999.90;;
14015;SDS011;7083;48.854;9.158;2023-04-05T03:25:54;1999.90;;;999.90;;
14015;SDS011;7083;48.854;9.158;2023-04-05T03:28:24;1999.90;;;999.90;;
14015;SDS011;7083;48.854;9.158;2023-04-05T03:30:51;1999.90;;;999.90;;
14015;SDS011;7083;48.854;9.158;2023-04-05T03:33:18;1999.90;;;999.90;;
14015;SDS011;7083;48.854;9.158;2023-04-05T03:35:45;1424.13;;;753.90;;
14015;SDS011;7083;48.854;9.158;2023-04-05T03:38:12;1999.90;;;999.90;;
14015;SDS011;7083;48.854;9.158;2023-04-05T03:40:39;1422.67;;;752.50;;
14015;SDS011;7083;48.854;9.158;2023-04-05T03:43:06;1424.23;;;754.00;;
14015;SDS011;7083;48.854;9.158;2023-04-05T03:45:34;275.43;;;264.73;;
14015;SDS011;7083;48.854;9.158;2023-04-05T03:48:00;1426.23;;;755.93;;
14015;SDS011;7083;48.854;9.158;2023-04-05T03:50:28;293.67;;;282.17;;
14015;SDS011;7083;48.854;9.158;2023-04-05T03:52:55;281.33;;;270.23;;
14015;SDS011;7083;48.854;9.158;2023-04-05T03:55:22;276.87;;;265.93;;
14015;SDS011;7083;48.854;9.158;2023-04-05T03:57:49;276.20;;;265.33;;
14015;SDS011;7083;48.854;9.158;2023-04-05T04:00:16;285.87;;;274.73;;
14015;SDS011;7083;48.854;9.158;2023-04-05T04:02:45;294.40;;;282.90;;
14015;SDS011;7083;48.854;9.158;2023-04-05T04:05:13;321.27;;;308.77;;
14015;SDS011;7083;48.854;9.158;2023-04-05T04:07:41;300.27;;;288.57;;
14015;SDS011;7083;48.854;9.158;2023-04-05T04:10:09;294.17;;;282.77;;
14015;SDS011;7083;48.854;9.158;2023-04-05T04:12:37;295.70;;;284.23;;
14015;SDS011;7083;48.854;9.158;2023-04-05T04:15:04;300.07;;;288.37;;
14015;SDS011;7083;48.854;9.158;2023-04-05T04:17:32;335.47;;;321.97;;
14015;SDS011;7083;48.854;9.158;2023-04-05T04:20:02;302.23;;;290.53;;
14015;SDS011;7083;48.854;9.158;2023-04-05T04:22:32;314.67;;;302.53;;
14015;SDS011;7083;48.854;9.158;2023-04-05T04:25:02;290.03;;;278.83;;
14015;SDS011;7083;48.854;9.158;2023-04-05T04:27:31;288.83;;;277.57;;
14015;SDS011;7083;48.854;9.158;2023-04-05T04:29:59;293.80;;;282.40;;
14015;SDS011;7083;48.854;9.158;2023-04-05T04:32:28;313.33;;;301.00;;
14015;SDS011;7083;48.854;9.158;2023-04-05T04:35:10;321.63;;;309.13;;
14015;SDS011;7083;48.854;9.158;2023-04-05T04:37:38;326.33;;;313.60;;
14015;SDS011;7083;48.854;9.158;2023-04-05T04:40:11;332.37;;;319.40;;
14015;SDS011;7083;48.854;9.158;2023-04-05T04:42:41;331.03;;;318.13;;
14015;SDS011;7083;48.854;9.158;2023-04-05T04:45:10;326.73;;;314.07;;
14015;SDS011;7083;48.854;9.158;2023-04-05T04:47:40;310.47;;;298.40;;
14015;SDS011;7083;48.854;9.158;2023-04-05T04:50:07;311.63;;;299.37;;
14015;SDS011;7083;48.854;9.158;2023-04-05T04:52:36;304.60;;;292.80;;
14015;SDS011;7083;48.854;9.158;2023-04-05T04:55:03;330.60;;;317.73;;
14015;SDS011;7083;48.854;9.158;2023-04-05T04:57:31;314.40;;;302.23;;
14015;SDS011;7083;48.854;9.158;2023-04-05T04:59:58;309.83;;;297.90;;
14015;SDS011;7083;48.854;9.158;2023-04-05T05:02:25;294.27;;;282.87;;
14015;SDS011;7083;48.854;9.158;2023-04-05T05:04:52;320.30;;;307.80;;
14015;SDS011;7083;48.854;9.158;2023-04-05T05:07:19;304.00;;;292.20;;
14015;SDS011;7083;48.854;9.158;2023-04-05T05:09:47;306.27;;;294.23;;
14015;SDS011;7083;48.854;9.158;2023-04-05T05:12:16;295.43;;;283.87;;
14015;SDS011;7083;48.854;9.158;2023-04-05T05:14:44;302.87;;;290.90;;
14015;SDS011;7083;48.854;9.158;2023-04-05T05:17:11;273.00;;;262.40;;
14015;SDS011;7083;48.854;9.158;2023-04-05T05:19:37;290.93;;;279.57;;
14015;SDS011;7083;48.854;9.158;2023-04-05T05:22:07;295.23;;;283.83;;
14015;SDS011;7083;48.854;9.158;2023-04-05T05:24:34;289.30;;;278.07;;
14015;SDS011;7083;48.854;9.158;2023-04-05T05:27:02;283.63;;;272.73;;
14015;SDS011;7083;48.854;9.158;2023-04-05T05:29:29;288.67;;;277.37;;
14015;SDS011;7083;48.854;9.158;2023-04-05T05:31:56;319.27;;;306.77;;
14015;SDS011;7083;48.854;9.158;2023-04-05T05:34:23;313.33;;;300.87;;
14015;SDS011;7083;48.854;9.158;2023-04-05T05:36:50;341.20;;;327.67;;
14015;SDS011;7083;48.854;9.158;2023-04-05T05:39:17;360.50;;;346.23;;
14015;SDS011;7083;48.854;9.158;2023-04-05T05:41:44;334.57;;;321.43;;
14015;SDS011;7083;48.854;9.158;2023-04-05T05:44:12;256.60;;;246.70;;
14015;SDS011;7083;48.854;9.158;2023-04-05T05:46:39;271.13;;;260.63;;
14015;SDS011;7083;48.854;9.158;2023-04-05T05:49:06;232.77;;;223.83;;
14015;SDS011;7083;48.854;9.158;2023-04-05T05:51:32;215.87;;;207.50;;
14015;SDS011;7083;48.854;9.158;2023-04-05T05:54:00;242.90;;;233.50;;
14015;SDS011;7083;48.854;9.158;2023-04-05T05:56:26;230.63;;;221.63;;
14015;SDS011;7083;48.854;9.158;2023-04-05T05:58:53;226.27;;;217.30;;
14015;SDS011;7083;48.854;9.158;2023-04-05T06:01:21;209.07;;;200.87;;
14015;SDS011;7083;48.854;9.158;2023-04-05T06:03:52;230.77;;;221.83;;
14015;SDS011;7083;48.854;9.158;2023-04-05T06:06:19;224.27;;;215.57;;
14015;SDS011;7083;48.854;9.158;2023-04-05T06:08:46;235.07;;;225.53;;
14015;SDS011;7083;48.854;9.158;2023-04-05T06:11:17;238.27;;;229.00;;
14015;SDS011;7083;48.854;9.158;2023-04-05T06:13:43;260.10;;;249.97;;
14015;SDS011;7083;48.854;9.158;2023-04-05T06:16:10;321.70;;;308.33;;
14015;SDS011;7083;48.854;9.158;2023-04-05T06:18:38;336.53;;;323.27;;
14015;SDS011;7083;48.854;9.158;2023-04-05T06:21:05;359.70;;;345.43;;
14015;SDS011;7083;48.854;9.158;2023-04-05T06:23:32;359.73;;;345.30;;
14015;SDS011;7083;48.854;9.158;2023-04-05T06:25:58;371.83;;;356.83;;
14015;SDS011;7083;48.854;9.158;2023-04-05T06:28:25;375.10;;;359.93;;
14015;SDS011;7083;48.854;9.158;2023-04-05T06:30:53;1999.90;;;999.90;;
14015;SDS011;7083;48.854;9.158;2023-04-05T06:33:20;1999.90;;;999.90;;
14015;SDS011;7083;48.854;9.158;2023-04-05T06:35:48;1999.90;;;999.90;;
14015;SDS011;7083;48.854;9.158;2023-04-05T06:38:15;1999.90;;;999.90;;
14015;SDS011;7083;48.854;9.158;2023-04-05T06:40:42;1999.90;;;999.90;;
14015;SDS011;7083;48.854;9.158;2023-04-05T06:43:09;1999.90;;;999.90;;
14015;SDS011;7083;48.854;9.158;2023-04-05T06:45:36;1999.90;;;999.90;;
14015;SDS011;7083;48.854;9.158;2023-04-05T06:48:03;1999.90;;;999.90;;
14015;SDS011;7083;48.854;9.158;2023-04-05T06:50:30;1999.90;;;999.90;;
14015;SDS011;7083;48.854;9.158;2023-04-05T06:52:58;1999.90;;;999.90;;
14015;SDS011;7083;48.854;9.158;2023-04-05T06:55:25;1999.90;;;999.90;;
14015;SDS011;7083;48.854;9.158;2023-04-05T06:57:51;1999.90;;;999.90;;
14015;SDS011;7083;48.854;9.158;2023-04-05T07:00:18;1999.90;;;999.90;;
14015;SDS011;7083;48.854;9.158;2023-04-05T07:02:45;1999.90;;;999.90;;
14015;SDS011;7083;48.854;9.158;2023-04-05T07:05:12;1999.90;;;999.90;;
14015;SDS011;7083;48.854;9.158;2023-04-05T07:07:39;1999.90;;;999.90;;
14015;SDS011;7083;48.854;9.158;2023-04-05T07:10:10;1999.90;;;999.90;;
14015;SDS011;7083;48.854;9.158;2023-04-05T07:12:37;1999.90;;;999.90;;
14015;SDS011;7083;48.854;9.158;2023-04-05T07:15:05;1999.90;;;999.90;;
14015;SDS011;7083;48.854;9.158;2023-04-05T07:17:32;1999.90;;;999.90;;
14015;SDS011;7083;48.854;9.158;2023-04-05T07:19:59;1999.90;;;999.90;;
14015;SDS011;7083;48.854;9.158;2023-04-05T07:22:26;1999.90;;;999.90;;
14015;SDS011;7083;48.854;9.158;2023-04-05T07:24:52;1999.90;;;999.90;;
14015;SDS011;7083;48.854;9.158;2023-04-05T07:27:20;1999.90;;;999.90;;
14015;SDS011;7083;48.854;9.158;2023-04-05T07:29:47;1999.90;;;999.90;;
14015;SDS011;7083;48.854;9.158;2023-04-05T07:32:14;1999.90;;;999.90;;
14015;SDS011;7083;48.854;9.158;2023-04-05T07:34:41;1999.90;;;999.90;;
14015;SDS011;7083;48.854;9.158;2023-04-05T07:37:07;1999.90;;;999.90;;
14015;SDS011;7083;48.854;9.158;2023-04-05T07:39:34;1999.90;;;999.90;;
14015;SDS011;7083;48.854;9.158;2023-04-05T07:42:01;1999.90;;;999.90;;
14015;SDS011;7083;48.854;9.158;2023-04-05T07:44:29;1999.90;;;999.90;;
14015;SDS011;7083;48.854;9.158;2023-04-05T07:46:56;1999.90;;;999.90;;
14015;SDS011;7083;48.854;9.158;2023-04-05T07:49:26;1999.90;;;999.90;;
14015;SDS011;7083;48.854;9.158;2023-04-05T07:51:53;1999.90;;;999.90;;
14015;SDS011;7083;48.854;9.158;2023-04-05T07:54:20;1999.90;;;999.90;;
14015;SDS011;7083;48.854;9.158;2023-04-05T07:56:47;1999.90;;;999.90;;
14015;SDS011;7083;48.854;9.158;2023-04-05T07:59:14;1999.90;;;999.90;;
14015;SDS011;7083;48.854;9.158;2023-04-05T08:01:43;1999.90;;;999.90;;
14015;SDS011;7083;48.854;9.158;2023-04-05T08:04:09;1999.90;;;999.90;;
14015;SDS011;7083;48.854;9.158;2023-04-05T08:06:36;1999.90;;;999.90;;
14015;SDS011;7083;48.854;9.158;2023-04-05T08:09:03;1999.90;;;999.90;;
14015;SDS011;7083;48.854;9.158;2023-04-05T08:11:32;1999.90;;;999.90;;
14015;SDS011;7083;48.854;9.158;2023-04-05T08:13:58;1999.90;;;999.90;;
14015;SDS011;7083;48.854;9.158;2023-04-05T08:16:25;1999.90;;;999.90;;
14015;SDS011;7083;48.854;9.158;2023-04-05T08:18:53;1999.90;;;999.90;;
14015;SDS011;7083;48.854;9.158;2023-04-05T08:21:21;1999.90;;;999.90;;
14015;SDS011;7083;48.854;9.158;2023-04-05T08:23:48;1999.90;;;999.90;;
14015;SDS011;7083;48.854;9.158;2023-04-05T08:26:15;1999.90;;;999.90;;
14015;SDS011;7083;48.854;9.158;2023-04-05T08:28:42;1999.90;;;999.90;;
14015;SDS011;7083;48.854;9.158;2023-04-05T08:31:08;1999.90;;;999.90;;
14015;SDS011;7083;48.854;9.158;2023-04-05T08:33:36;1999.90;;;999.90;;
14015;SDS011;7083;48.854;9.158;2023-04-05T08:36:04;1999.90;;;999.90;;
14015;SDS011;7083;48.854;9.158;2023-04-05T08:38:32;1999.90;;;999.90;;
14015;SDS011;7083;48.854;9.158;2023-04-05T08:41:05;1999.90;;;999.90;;
14015;SDS011;7083;48.854;9.158;2023-04-05T08:43:37;1999.90;;;999.90;;
14015;SDS011;7083;48.854;9.158;2023-04-05T08:46:08;1999.90;;;999.90;;
14015;SDS011;7083;48.854;9.158;2023-04-05T08:48:40;1999.90;;;999.90;;
14015;SDS011;7083;48.854;9.158;2023-04-05T08:51:08;1999.90;;;999.90;;
14015;SDS011;7083;48.854;9.158;2023-04-05T08:53:35;1999.90;;;999.90;;
14015;SDS011;7083;48.854;9.158;2023-04-05T08:56:02;1999.90;;;999.90;;
14015;SDS011;7083;48.854;9.158;2023-04-05T08:58:30;1999.90;;;999.90;;
14015;SDS011;7083;48.854;9.158;2023-04-05T09:00:58;1999.90;;;999.90;;
14015;SDS011;7083;48.854;9.158;2023-04-05T09:03:27;1999.90;;;999.90;;
14015;SDS011;7083;48.854;9.158;2023-04-05T09:05:57;1999.90;;;999.90;;
14015;SDS011;7083;48.854;9.158;2023-04-05T09:08:25;1999.90;;;999.90;;
14015;SDS011;7083;48.854;9.158;2023-04-05T09:10:52;1999.90;;;999.90;;
14015;SDS011;7083;48.854;9.158;2023-04-05T09:13:19;1999.90;;;999.90;;
14015;SDS011;7083;48.854;9.158;2023-04-05T09:15:46;1999.90;;;999.90;;
14015;SDS011;7083;48.854;9.158;2023-04-05T09:18:13;1999.90;;;999.90;;
14015;SDS011;7083;48.854;9.158;2023-04-05T09:20:40;1999.90;;;999.90;;
14015;SDS011;7083;48.854;9.158;2023-04-05T09:23:06;1999.90;;;999.90;;
14015;SDS011;7083;48.854;9.158;2023-04-05T09:25:35;1999.90;;;999.90;;
14015;SDS011;7083;48.854;9.158;2023-04-05T09:28:03;1999.90;;;999.90;;
14015;SDS011;7083;48.854;9.158;2023-04-05T09:30:31;1999.90;;;999.90;;
14015;SDS011;7083;48.854;9.158;2023-04-05T09:32:58;1999.90;;;999.90;;
14015;SDS011;7083;48.854;9.158;2023-04-05T09:35:26;1999.90;;;999.90;;
14015;SDS011;7083;48.854;9.158;2023-04-05T09:37:54;1999.90;;;999.90;;
14015;SDS011;7083;48.854;9.158;2023-04-05T09:40:22;1999.90;;;999.90;;
14015;SDS011;7083;48.854;9.158;2023-04-05T09:42:50;1999.90;;;999.90;;
14015;SDS011;7083;48.854;9.158;2023-04-05T09:45:18;1999.90;;;999.90;;
14015;SDS011;7083;48.854;9.158;2023-04-05T09:47:52;1999.90;;;999.90;;
14015;SDS011;7083;48.854;9.158;2023-04-05T09:50:20;1999.90;;;999.90;;
14015;SDS011;7083;48.854;9.158;2023-04-05T09:52:47;1999.90;;;999.90;;
14015;SDS011;7083;48.854;9.158;2023-04-05T09:55:24;1999.90;;;999.90;;
14015;SDS011;7083;48.854;9.158;2023-04-05T09:57:54;1999.90;;;999.90;;
14015;SDS011;7083;48.854;9.158;2023-04-05T10:00:21;1999.90;;;999.90;;
14015;SDS011;7083;48.854;9.158;2023-04-05T10:02:51;1999.90;;;999.90;;
14015;SDS011;7083;48.854;9.158;2023-04-05T10:05:18;1999.90;;;999.90;;
14015;SDS011;7083;48.854;9.158;2023-04-05T10:07:50;1999.90;;;999.90;;
14015;SDS011;7083;48.854;9.158;2023-04-05T10:10:17;1999.90;;;999.90;;
14015;SDS011;7083;48.854;9.158;2023-04-05T10:12:44;1999.90;;;999.90;;
14015;SDS011;7083;48.854;9.158;2023-04-05T10:15:14;1999.90;;;999.90;;
14015;SDS011;7083;48.854;9.158;2023-04-05T10:17:46;1999.90;;;999.90;;
14015;SDS011;7083;48.854;9.158;2023-04-05T10:20:17;1999.90;;;999.90;;
14015;SDS011;7083;48.854;9.158;2023-04-05T10:22:53;1999.90;;;999.90;;
14015;SDS011;7083;48.854;9.158;2023-04-05T10:25:26;1999.90;;;999.90;;
14015;SDS011;7083;48.854;9.158;2023-04-05T10:28:01;1999.90;;;999.90;;
14015;SDS011;7083;48.854;9.158;2023-04-05T10:30:33;1999.90;;;999.90;;
14015;SDS011;7083;48.854;9.158;2023-04-05T10:33:08;1999.90;;;999.90;;
14015;SDS011;7083;48.854;9.158;2023-04-05T10:35:42;1999.90;;;999.90;;
14015;SDS011;7083;48.854;9.158;2023-04-05T10:38:17;1999.90;;;999.90;;
14015;SDS011;7083;48.854;9.158;2023-04-05T10:40:48;1999.90;;;999.90;;
14015;SDS011;7083;48.854;9.158;2023-04-05T10:43:20;1999.90;;;999.90;;
14015;SDS011;7083;48.854;9.158;2023-04-05T10:45:52;1999.90;;;999.90;;
14015;SDS011;7083;48.854;9.158;2023-04-05T10:48:22;1999.90;;;999.90;;
14015;SDS011;7083;48.854;9.158;2023-04-05T10:50:56;1999.90;;;999.90;;
14015;SDS011;7083;48.854;9.158;2023-04-05T10:53:24;1999.90;;;999.90;;
14015;SDS011;7083;48.854;9.158;2023-04-05T10:55:52;1999.90;;;999.90;;
14015;SDS011;7083;48.854;9.158;2023-04-05T10:58:20;1999.90;;;999.90;;
14015;SDS011;7083;48.854;9.158;2023-04-05T11:00:49;1999.90;;;999.90;;
14015;SDS011;7083;48.854;9.158;2023-04-05T11:06:22;1999.90;;;999.90;;
14015;SDS011;7083;48.854;9.158;2023-04-05T11:08:51;1999.90;;;999.90;;
14015;SDS011;7083;48.854;9.158;2023-04-05T11:11:21;1999.90;;;999.90;;
14015;SDS011;7083;48.854;9.158;2023-04-05T11:13:49;1999.90;;;999.90;;
14015;SDS011;7083;48.854;9.158;2023-04-05T11:16:17;1999.90;;;999.90;;
14015;SDS011;7083;48.854;9.158;2023-04-05T11:18:45;1999.90;;;999.90;;
14015;SDS011;7083;48.854;9.158;2023-04-05T11:21:20;1999.90;;;999.90;;
14015;SDS011;7083;48.854;9.158;2023-04-05T11:24:04;1999.90;;;999.90;;
14015;SDS011;7083;48.854;9.158;2023-04-05T11:26:32;1999.90;;;999.90;;
14015;SDS011;7083;48.854;9.158;2023-04-05T11:29:19;1999.90;;;999.90;;
14015;SDS011;7083;48.854;9.158;2023-04-05T11:32:13;1999.90;;;999.90;;
14015;SDS011;7083;48.854;9.158;2023-04-05T11:34:46;1999.90;;;999.90;;
14015;SDS011;7083;48.854;9.158;2023-04-05T11:40:27;1999.90;;;999.90;;
14015;SDS011;7083;48.854;9.158;2023-04-05T11:42:58;1999.90;;;999.90;;
14015;SDS011;7083;48.854;9.158;2023-04-05T11:45:28;1999.90;;;999.90;;
14015;SDS011;7083;48.854;9.158;2023-04-05T11:47:55;1999.90;;;999.90;;
14015;SDS011;7083;48.854;9.158;2023-04-05T11:50:24;1999.90;;;999.90;;
14015;SDS011;7083;48.854;9.158;2023-04-05T11:53:08;1999.90;;;999.90;;
14015;SDS011;7083;48.854;9.158;2023-04-05T11:55:36;1999.90;;;999.90;;
14015;SDS011;7083;48.854;9.158;2023-04-05T11:58:09;1999.90;;;999.90;;
14015;SDS011;7083;48.854;9.158;2023-04-05T12:00:38;1999.90;;;999.90;;
14015;SDS011;7083;48.854;9.158;2023-04-05T12:03:05;1999.90;;;999.90;;
14015;SDS011;7083;48.854;9.158;2023-04-05T12:05:49;1999.90;;;999.90;;
14015;SDS011;7083;48.854;9.158;2023-04-05T12:08:17;1999.90;;;999.90;;
14015;SDS011;7083;48.854;9.158;2023-04-05T12:10:44;1999.90;;;999.90;;
14015;SDS011;7083;48.854;9.158;2023-04-05T12:13:23;1999.90;;;999.90;;
14015;SDS011;7083;48.854;9.158;2023-04-05T12:15:51;1999.90;;;999.90;;
14015;SDS011;7083;48.854;9.158;2023-04-05T12:18:17;1999.90;;;999.90;;
14015;SDS011;7083;48.854;9.158;2023-04-05T12:20:45;1999.90;;;999.90;;
14015;SDS011;7083;48.854;9.158;2023-04-05T12:23:13;1999.90;;;999.90;;
14015;SDS011;7083;48.854;9.158;2023-04-05T12:25:41;1999.90;;;999.90;;
14015;SDS011;7083;48.854;9.158;2023-04-05T12:28:11;1999.90;;;999.90;;
14015;SDS011;7083;48.854;9.158;2023-04-05T12:30:47;1999.90;;;999.90;;
14015;SDS011;7083;48.854;9.158;2023-04-05T12:33:14;1999.90;;;999.90;;
14015;SDS011;7083;48.854;9.158;2023-04-05T12:35:41;1999.90;;;999.90;;
14015;SDS011;7083;48.854;9.158;2023-04-05T12:38:08;1999.90;;;999.90;;
14015;SDS011;7083;48.854;9.158;2023-04-05T12:40:36;1999.90;;;999.90;;
14015;SDS011;7083;48.854;9.158;2023-04-05T12:43:06;1999.90;;;999.90;;
14015;SDS011;7083;48.854;9.158;2023-04-05T12:45:34;1999.90;;;999.90;;
14015;SDS011;7083;48.854;9.158;2023-04-05T12:48:06;1999.90;;;999.90;;
14015;SDS011;7083;48.854;9.158;2023-04-05T12:50:35;1999.90;;;999.90;;
14015;SDS011;7083;48.854;9.158;2023-04-05T12:53:07;1999.90;;;999.90;;
14015;SDS011;7083;48.854;9.158;2023-04-05T12:55:44;1999.90;;;999.90;;
14015;SDS011;7083;48.854;9.158;2023-04-05T12:58:13;1999.90;;;999.90;;
14015;SDS011;7083;48.854;9.158;2023-04-05T13:00:41;1999.90;;;999.90;;
14015;SDS011;7083;48.854;9.158;2023-04-05T13:03:14;1999.90;;;999.90;;
14015;SDS011;7083;48.854;9.158;2023-04-05T13:05:41;1999.90;;;999.90;;
14015;SDS011;7083;48.854;9.158;2023-04-05T13:08:08;1999.90;;;999.90;;
14015;SDS011;7083;48.854;9.158;2023-04-05T13:10:35;1999.90;;;999.90;;
14015;SDS011;7083;48.854;9.158;2023-04-05T13:13:03;1999.90;;;999.90;;
14015;SDS011;7083;48.854;9.158;2023-04-05T13:15:30;1999.90;;;999.90;;
14015;SDS011;7083;48.854;9.158;2023-04-05T13:17:57;1999.90;;;999.90;;
14015;SDS011;7083;48.854;9.158;2023-04-05T13:20:23;1999.90;;;999.90;;
14015;SDS011;7083;48.854;9.158;2023-04-05T13:22:50;1999.90;;;999.90;;
14015;SDS011;7083;48.854;9.158;2023-04-05T13:25:17;1999.90;;;999.90;;
14015;SDS011;7083;48.854;9.158;2023-04-05T13:27:44;1999.90;;;999.90;;
14015;SDS011;7083;48.854;9.158;2023-04-05T13:30:12;1999.90;;;999.90;;
14015;SDS011;7083;48.854;9.158;2023-04-05T13:32:39;1999.90;;;999.90;;
14015;SDS011;7083;48.854;9.158;2023-04-05T13:35:06;1999.90;;;999.90;;
14015;SDS011;7083;48.854;9.158;2023-04-05T13:37:33;1999.90;;;999.90;;
14015;SDS011;7083;48.854;9.158;2023-04-05T13:40:00;1999.90;;;999.90;;
14015;SDS011;7083;48.854;9.158;2023-04-05T13:42:27;1999.90;;;999.90;;
14015;SDS011;7083;48.854;9.158;2023-04-05T13:44:54;1999.90;;;999.90;;
14015;SDS011;7083;48.854;9.158;2023-04-05T13:47:22;1999.90;;;999.90;;
14015;SDS011;7083;48.854;9.158;2023-04-05T13:49:48;1999.90;;;999.90;;
14015;SDS011;7083;48.854;9.158;2023-04-05T13:52:15;1999.90;;;999.90;;
14015;SDS011;7083;48.854;9.158;2023-04-05T13:54:42;1999.90;;;999.90;;
14015;SDS011;7083;48.854;9.158;2023-04-05T13:57:09;1999.90;;;999.90;;
14015;SDS011;7083;48.854;9.158;2023-04-05T13:59:38;1999.90;;;999.90;;
14015;SDS011;7083;48.854;9.158;2023-04-05T14:02:04;1999.90;;;999.90;;
14015;SDS011;7083;48.854;9.158;2023-04-05T14:04:32;1999.90;;;999.90;;
14015;SDS011;7083;48.854;9.158;2023-04-05T14:06:59;1999.90;;;999.90;;
14015;SDS011;7083;48.854;9.158;2023-04-05T14:09:27;1999.90;;;999.90;;
14015;SDS011;7083;48.854;9.158;2023-04-05T14:11:54;1999.90;;;999.90;;
14015;SDS011;7083;48.854;9.158;2023-04-05T14:14:21;1999.90;;;999.90;;
14015;SDS011;7083;48.854;9.158;2023-04-05T14:16:49;1999.90;;;999.90;;
14015;SDS011;7083;48.854;9.158;2023-04-05T14:19:16;1999.90;;;999.90;;
14015;SDS011;7083;48.854;9.158;2023-04-05T14:21:44;1999.90;;;999.90;;